FFT1507 KSLC-KLAS
Flight info
| Callsign | FFT1507 |
|---|---|
| Flight time | 1h 1m |
| Altitude | 36000 |
| Route | ARCHZ1 MLF STEWW CHOWW3 |
| Aircraft | A321/M-SDE3FGHIRWY/LB1 |
Departure
| Time | 2026-05-04 03:19 |
|---|---|
| Airport | Salt Lake City International Airport (KSLC) |
Arrival
| Time | 2026-05-04 04:20 |
|---|---|
| Airport | Harry Reid International Airport (KLAS) |
| Time | Latitude | Longitude | Altitude | Speed | Heading |
|---|---|---|---|---|---|
| 2026-05-04 02:17 | 40.78891 | -111.99143 | 4227 ft | 0 kts | 173° |
| 2026-05-04 02:57 | 40.78892 | -111.99144 | 4227 ft | 0 kts | 174° |
| 2026-05-04 03:03 | 40.78897 | -111.99145 | 4227 ft | 2 kts | 174° |
| 2026-05-04 03:03 | 40.78906 | -111.99146 | 4227 ft | 2 kts | 172° |
| 2026-05-04 03:04 | 40.78918 | -111.99152 | 4227 ft | 2 kts | 139° |
| 2026-05-04 03:04 | 40.78926 | -111.99164 | 4227 ft | 2 kts | 118° |
| 2026-05-04 03:04 | 40.78929 | -111.99174 | 4227 ft | 0 kts | 103° |
| 2026-05-04 03:04 | 40.78930 | -111.99182 | 4227 ft | 1 kts | 100° |
| 2026-05-04 03:05 | 40.78930 | -111.99184 | 4227 ft | 0 kts | 101° |
| 2026-05-04 03:09 | 40.78931 | -111.99183 | 4227 ft | 0 kts | 89° |
| 2026-05-04 03:09 | 40.78936 | -111.99178 | 4227 ft | 1 kts | 1° |
| 2026-05-04 03:09 | 40.78939 | -111.99197 | 4227 ft | 3 kts | 247° |
| 2026-05-04 03:10 | 40.78919 | -111.99231 | 4227 ft | 6 kts | 227° |
| 2026-05-04 03:10 | 40.78884 | -111.99281 | 4227 ft | 8 kts | 228° |
| 2026-05-04 03:10 | 40.78838 | -111.99345 | 4226 ft | 10 kts | 220° |
| 2026-05-04 03:10 | 40.78764 | -111.99377 | 4226 ft | 12 kts | 176° |
| 2026-05-04 03:11 | 40.78677 | -111.99367 | 4226 ft | 14 kts | 175° |
| 2026-05-04 03:11 | 40.78579 | -111.99355 | 4227 ft | 15 kts | 175° |
| 2026-05-04 03:11 | 40.78471 | -111.99343 | 4227 ft | 17 kts | 175° |
| 2026-05-04 03:11 | 40.78357 | -111.99329 | 4227 ft | 17 kts | 175° |
| 2026-05-04 03:12 | 40.78245 | -111.99317 | 4227 ft | 17 kts | 175° |
| 2026-05-04 03:12 | 40.78131 | -111.99305 | 4227 ft | 16 kts | 175° |
| 2026-05-04 03:12 | 40.78017 | -111.99291 | 4227 ft | 16 kts | 174° |
| 2026-05-04 03:12 | 40.77901 | -111.99277 | 4227 ft | 16 kts | 175° |
| 2026-05-04 03:13 | 40.77784 | -111.99264 | 4227 ft | 16 kts | 175° |
| 2026-05-04 03:13 | 40.77671 | -111.99252 | 4227 ft | 16 kts | 175° |
| 2026-05-04 03:13 | 40.77558 | -111.99251 | 4228 ft | 15 kts | 196° |
| 2026-05-04 03:13 | 40.77514 | -111.99312 | 4229 ft | 7 kts | 254° |
| 2026-05-04 03:14 | 40.77511 | -111.99374 | 4230 ft | 6 kts | 277° |
| 2026-05-04 03:14 | 40.77513 | -111.99390 | 4230 ft | 0 kts | 283° |
| 2026-05-04 03:15 | 40.77514 | -111.99397 | 4230 ft | 3 kts | 283° |
| 2026-05-04 03:15 | 40.77520 | -111.99455 | 4230 ft | 9 kts | 274° |
| 2026-05-04 03:15 | 40.77526 | -111.99538 | 4230 ft | 4 kts | 292° |
| 2026-05-04 03:16 | 40.77560 | -111.99557 | 4230 ft | 5 kts | 354° |
| 2026-05-04 03:16 | 40.77574 | -111.99558 | 4230 ft | 0 kts | 354° |
| 2026-05-04 03:18 | 40.77586 | -111.99560 | 4229 ft | 4 kts | 355° |
| 2026-05-04 03:18 | 40.77723 | -111.99576 | 4230 ft | 47 kts | 355° |
| 2026-05-04 03:18 | 40.78320 | -111.99644 | 4226 ft | 123 kts | 354° |
| 2026-05-04 03:19 | 40.79416 | -111.99777 | 4302 ft | 178 kts | 354° |
| 2026-05-04 03:19 | 40.80728 | -111.99961 | 4969 ft | 186 kts | 353° |
| 2026-05-04 03:19 | 40.82051 | -112.00489 | 5579 ft | 206 kts | 326° |
| 2026-05-04 03:19 | 40.82977 | -112.02053 | 6227 ft | 223 kts | 291° |
| 2026-05-04 03:20 | 40.83233 | -112.04147 | 6588 ft | 238 kts | 274° |
| 2026-05-04 03:20 | 40.83273 | -112.06451 | 6917 ft | 255 kts | 271° |
| 2026-05-04 03:20 | 40.83270 | -112.08994 | 7294 ft | 271 kts | 271° |
| 2026-05-04 03:20 | 40.83259 | -112.11565 | 7904 ft | 276 kts | 271° |
| 2026-05-04 03:21 | 40.83251 | -112.14182 | 8557 ft | 277 kts | 270° |
| 2026-05-04 03:21 | 40.83248 | -112.16777 | 8933 ft | 278 kts | 270° |
| 2026-05-04 03:21 | 40.83248 | -112.19443 | 9033 ft | 277 kts | 270° |
| 2026-05-04 03:21 | 40.83252 | -112.22025 | 9036 ft | 276 kts | 271° |
| 2026-05-04 03:22 | 40.82986 | -112.24634 | 9018 ft | 283 kts | 247° |
| 2026-05-04 03:22 | 40.81670 | -112.26711 | 9276 ft | 298 kts | 212° |
| 2026-05-04 03:22 | 40.79637 | -112.27530 | 9977 ft | 299 kts | 183° |
| 2026-05-04 03:22 | 40.77476 | -112.27476 | 10675 ft | 303 kts | 178° |
| 2026-05-04 03:23 | 40.75270 | -112.27486 | 11018 ft | 319 kts | 184° |
| 2026-05-04 03:23 | 40.72937 | -112.27834 | 11475 ft | 329 kts | 188° |
| 2026-05-04 03:23 | 40.70609 | -112.28284 | 12140 ft | 332 kts | 189° |
| 2026-05-04 03:23 | 40.68249 | -112.28760 | 12833 ft | 334 kts | 189° |
| 2026-05-04 03:24 | 40.65853 | -112.29250 | 13535 ft | 335 kts | 189° |
| 2026-05-04 03:24 | 40.63518 | -112.29728 | 14219 ft | 336 kts | 189° |
| 2026-05-04 03:24 | 40.61136 | -112.30212 | 14878 ft | 337 kts | 189° |
| 2026-05-04 03:24 | 40.58736 | -112.30700 | 15484 ft | 340 kts | 190° |
| 2026-05-04 03:25 | 40.56327 | -112.31317 | 16034 ft | 343 kts | 194° |
| 2026-05-04 03:25 | 40.53938 | -112.32170 | 16594 ft | 345 kts | 198° |
| 2026-05-04 03:25 | 40.51587 | -112.33129 | 17142 ft | 348 kts | 198° |
| 2026-05-04 03:25 | 40.49265 | -112.34084 | 17686 ft | 351 kts | 199° |
| 2026-05-04 03:26 | 40.46843 | -112.35080 | 18250 ft | 352 kts | 199° |
| 2026-05-04 03:26 | 40.44412 | -112.36077 | 18818 ft | 354 kts | 198° |
| 2026-05-04 03:26 | 40.42002 | -112.37062 | 19373 ft | 355 kts | 199° |
| 2026-05-04 03:26 | 40.39532 | -112.38072 | 19936 ft | 357 kts | 198° |
| 2026-05-04 03:27 | 40.37113 | -112.39060 | 20461 ft | 359 kts | 198° |
| 2026-05-04 03:27 | 40.34654 | -112.40063 | 20984 ft | 361 kts | 198° |
| 2026-05-04 03:27 | 40.32180 | -112.41072 | 21485 ft | 363 kts | 198° |
| 2026-05-04 03:27 | 40.29688 | -112.42087 | 21981 ft | 366 kts | 198° |
| 2026-05-04 03:28 | 40.27182 | -112.43106 | 22479 ft | 368 kts | 199° |
| 2026-05-04 03:28 | 40.24625 | -112.44144 | 22978 ft | 370 kts | 199° |
| 2026-05-04 03:28 | 40.22123 | -112.45161 | 23432 ft | 372 kts | 199° |
| 2026-05-04 03:28 | 40.19618 | -112.46269 | 23887 ft | 374 kts | 202° |
| 2026-05-04 03:29 | 40.17157 | -112.47611 | 24352 ft | 376 kts | 206° |
| 2026-05-04 03:29 | 40.14762 | -112.49181 | 24814 ft | 377 kts | 209° |
| 2026-05-04 03:29 | 40.12397 | -112.50841 | 25291 ft | 378 kts | 209° |
| 2026-05-04 03:29 | 40.10057 | -112.52490 | 25739 ft | 379 kts | 209° |
| 2026-05-04 03:30 | 40.07655 | -112.54184 | 26163 ft | 380 kts | 209° |
| 2026-05-04 03:30 | 40.05267 | -112.55866 | 26550 ft | 382 kts | 209° |
| 2026-05-04 03:30 | 40.02846 | -112.57568 | 26792 ft | 388 kts | 209° |
| 2026-05-04 03:30 | 40.00358 | -112.59313 | 26989 ft | 394 kts | 209° |
| 2026-05-04 03:31 | 39.97871 | -112.61056 | 27335 ft | 396 kts | 209° |
| 2026-05-04 03:31 | 39.95344 | -112.62826 | 27696 ft | 398 kts | 209° |
| 2026-05-04 03:31 | 39.92842 | -112.64580 | 28050 ft | 400 kts | 209° |
| 2026-05-04 03:31 | 39.90315 | -112.66349 | 28365 ft | 402 kts | 208° |
| 2026-05-04 03:32 | 39.87724 | -112.68163 | 28712 ft | 404 kts | 208° |
| 2026-05-04 03:32 | 39.85168 | -112.69955 | 29148 ft | 403 kts | 208° |
| 2026-05-04 03:32 | 39.82601 | -112.71748 | 29661 ft | 400 kts | 208° |
| 2026-05-04 03:32 | 39.80103 | -112.73489 | 30126 ft | 398 kts | 208° |
| 2026-05-04 03:33 | 39.77616 | -112.75223 | 30525 ft | 397 kts | 208° |
| 2026-05-04 03:33 | 39.75106 | -112.76962 | 30838 ft | 398 kts | 207° |
| 2026-05-04 03:33 | 39.72505 | -112.78575 | 31056 ft | 401 kts | 204° |
| 2026-05-04 03:33 | 39.69793 | -112.79984 | 31334 ft | 403 kts | 200° |
| 2026-05-04 03:34 | 39.67062 | -112.81148 | 31607 ft | 404 kts | 197° |
| 2026-05-04 03:34 | 39.64256 | -112.82092 | 31873 ft | 406 kts | 193° |
| 2026-05-04 03:34 | 39.61407 | -112.82809 | 31974 ft | 408 kts | 190° |
| 2026-05-04 03:35 | 39.55545 | -112.83748 | 31983 ft | 408 kts | 188° |
| 2026-05-04 03:35 | 39.49745 | -112.84619 | 31996 ft | 407 kts | 188° |
| 2026-05-04 03:36 | 39.43942 | -112.85487 | 31997 ft | 406 kts | 188° |
| 2026-05-04 03:36 | 39.38105 | -112.86359 | 32004 ft | 406 kts | 189° |
| 2026-05-04 03:37 | 39.32312 | -112.87223 | 32000 ft | 404 kts | 189° |
| 2026-05-04 03:37 | 39.26550 | -112.88082 | 32013 ft | 404 kts | 189° |
| 2026-05-04 03:38 | 39.20839 | -112.88927 | 31993 ft | 404 kts | 189° |
| 2026-05-04 03:38 | 39.15014 | -112.89784 | 32001 ft | 404 kts | 189° |
| 2026-05-04 03:39 | 39.09253 | -112.90633 | 32009 ft | 403 kts | 189° |
| 2026-05-04 03:39 | 39.03516 | -112.91474 | 32000 ft | 403 kts | 189° |
| 2026-05-04 03:40 | 38.97710 | -112.92326 | 32017 ft | 401 kts | 189° |
| 2026-05-04 03:40 | 38.91939 | -112.93173 | 32001 ft | 402 kts | 190° |
| 2026-05-04 03:41 | 38.86260 | -112.94005 | 32006 ft | 402 kts | 190° |
| 2026-05-04 03:41 | 38.80561 | -112.94835 | 32015 ft | 400 kts | 191° |
| 2026-05-04 03:42 | 38.74847 | -112.95668 | 32028 ft | 400 kts | 192° |
| 2026-05-04 03:42 | 38.69179 | -112.96505 | 32038 ft | 399 kts | 191° |
| 2026-05-04 03:43 | 38.63530 | -112.97327 | 32022 ft | 400 kts | 192° |
| 2026-05-04 03:43 | 38.57838 | -112.98150 | 32002 ft | 398 kts | 192° |
| 2026-05-04 03:44 | 38.52117 | -112.98984 | 32002 ft | 399 kts | 192° |
| 2026-05-04 03:44 | 38.46394 | -112.99816 | 31991 ft | 399 kts | 193° |
| 2026-05-04 03:45 | 38.40725 | -113.00670 | 31975 ft | 397 kts | 195° |
| 2026-05-04 03:45 | 38.35080 | -113.02134 | 31995 ft | 393 kts | 201° |
| 2026-05-04 03:46 | 38.29806 | -113.04272 | 31985 ft | 388 kts | 206° |
| 2026-05-04 03:46 | 38.24516 | -113.06776 | 32016 ft | 390 kts | 207° |
| 2026-05-04 03:47 | 38.19245 | -113.09270 | 32029 ft | 389 kts | 207° |
| 2026-05-04 03:47 | 38.13998 | -113.11750 | 32046 ft | 390 kts | 208° |
| 2026-05-04 03:48 | 38.08719 | -113.14245 | 32049 ft | 389 kts | 208° |
| 2026-05-04 03:48 | 38.03422 | -113.16743 | 32052 ft | 388 kts | 208° |
| 2026-05-04 03:49 | 37.98189 | -113.19211 | 32062 ft | 387 kts | 208° |
| 2026-05-04 03:49 | 37.92921 | -113.21693 | 32052 ft | 388 kts | 208° |
| 2026-05-04 03:50 | 37.87704 | -113.24143 | 32053 ft | 387 kts | 209° |
| 2026-05-04 03:50 | 37.82453 | -113.26608 | 32050 ft | 389 kts | 209° |
| 2026-05-04 03:51 | 37.77211 | -113.29065 | 32046 ft | 389 kts | 209° |
| 2026-05-04 03:51 | 37.72002 | -113.31502 | 32036 ft | 389 kts | 209° |
| 2026-05-04 03:52 | 37.66777 | -113.33944 | 32043 ft | 388 kts | 209° |
| 2026-05-04 03:52 | 37.61534 | -113.36388 | 32045 ft | 387 kts | 209° |
| 2026-05-04 03:53 | 37.56335 | -113.38806 | 32051 ft | 387 kts | 210° |
| 2026-05-04 03:53 | 37.51152 | -113.41222 | 32062 ft | 387 kts | 209° |
| 2026-05-04 03:54 | 37.45982 | -113.43621 | 32070 ft | 387 kts | 209° |
| 2026-05-04 03:54 | 37.40786 | -113.46029 | 32055 ft | 387 kts | 210° |
| 2026-05-04 03:55 | 37.35610 | -113.48431 | 31833 ft | 387 kts | 210° |
| 2026-05-04 03:55 | 37.33001 | -113.49635 | 31460 ft | 382 kts | 210° |
| 2026-05-04 03:55 | 37.30484 | -113.50800 | 30856 ft | 380 kts | 209° |
| 2026-05-04 03:55 | 37.27967 | -113.51965 | 30194 ft | 380 kts | 209° |
| 2026-05-04 03:56 | 37.25418 | -113.53168 | 29497 ft | 378 kts | 210° |
| 2026-05-04 03:56 | 37.22939 | -113.54503 | 28690 ft | 379 kts | 212° |
| 2026-05-04 03:56 | 37.20499 | -113.55943 | 27956 ft | 378 kts | 212° |
| 2026-05-04 03:56 | 37.18034 | -113.57382 | 27322 ft | 376 kts | 211° |
| 2026-05-04 03:57 | 37.15580 | -113.58807 | 26679 ft | 374 kts | 211° |
| 2026-05-04 03:57 | 37.13160 | -113.60221 | 26028 ft | 372 kts | 210° |
| 2026-05-04 03:57 | 37.10755 | -113.61627 | 25407 ft | 370 kts | 210° |
| 2026-05-04 03:57 | 37.08322 | -113.63047 | 24757 ft | 369 kts | 209° |
| 2026-05-04 03:58 | 37.03636 | -113.65784 | 23518 ft | 365 kts | 208° |
| 2026-05-04 03:58 | 37.01267 | -113.67161 | 22930 ft | 363 kts | 208° |
| 2026-05-04 03:58 | 36.98904 | -113.68536 | 22347 ft | 360 kts | 207° |
| 2026-05-04 03:59 | 36.96583 | -113.69887 | 21800 ft | 357 kts | 207° |
| 2026-05-04 03:59 | 36.94316 | -113.71209 | 21235 ft | 355 kts | 207° |
| 2026-05-04 03:59 | 36.91988 | -113.72568 | 20647 ft | 353 kts | 206° |
| 2026-05-04 03:59 | 36.89734 | -113.73885 | 20087 ft | 352 kts | 206° |
| 2026-05-04 04:00 | 36.87467 | -113.75208 | 19567 ft | 349 kts | 205° |
| 2026-05-04 04:00 | 36.85191 | -113.76535 | 19026 ft | 347 kts | 205° |
| 2026-05-04 04:00 | 36.82926 | -113.77856 | 18493 ft | 346 kts | 205° |
| 2026-05-04 04:00 | 36.80708 | -113.79149 | 17984 ft | 344 kts | 204° |
| 2026-05-04 04:01 | 36.78488 | -113.80439 | 17506 ft | 341 kts | 204° |
| 2026-05-04 04:01 | 36.76285 | -113.81715 | 17086 ft | 336 kts | 204° |
| 2026-05-04 04:01 | 36.74148 | -113.82958 | 16622 ft | 333 kts | 204° |
| 2026-05-04 04:01 | 36.72004 | -113.84204 | 16123 ft | 332 kts | 204° |
| 2026-05-04 04:02 | 36.69891 | -113.85430 | 15650 ft | 330 kts | 204° |
| 2026-05-04 04:02 | 36.67738 | -113.86681 | 15204 ft | 326 kts | 204° |
| 2026-05-04 04:02 | 36.65681 | -113.87875 | 14751 ft | 325 kts | 203° |
| 2026-05-04 04:02 | 36.63582 | -113.89093 | 14271 ft | 323 kts | 203° |
| 2026-05-04 04:03 | 36.61503 | -113.90315 | 13821 ft | 320 kts | 205° |
| 2026-05-04 04:03 | 36.59553 | -113.91839 | 13353 ft | 320 kts | 214° |
| 2026-05-04 04:03 | 36.57823 | -113.93709 | 12889 ft | 321 kts | 222° |
| 2026-05-04 04:03 | 36.56350 | -113.95837 | 12438 ft | 320 kts | 228° |
| 2026-05-04 04:04 | 36.54943 | -113.98089 | 11978 ft | 317 kts | 229° |
| 2026-05-04 04:04 | 36.53583 | -114.00301 | 11528 ft | 314 kts | 229° |
| 2026-05-04 04:04 | 36.52223 | -114.02505 | 11022 ft | 313 kts | 230° |
| 2026-05-04 04:04 | 36.50866 | -114.04699 | 10480 ft | 313 kts | 229° |
| 2026-05-04 04:05 | 36.49522 | -114.06871 | 10009 ft | 310 kts | 229° |
| 2026-05-04 04:05 | 36.48199 | -114.09002 | 9577 ft | 306 kts | 229° |
| 2026-05-04 04:05 | 36.46913 | -114.11077 | 9256 ft | 287 kts | 229° |
| 2026-05-04 04:05 | 36.45693 | -114.13047 | 8894 ft | 271 kts | 229° |
| 2026-05-04 04:06 | 36.44536 | -114.14906 | 8338 ft | 264 kts | 229° |
| 2026-05-04 04:06 | 36.43379 | -114.16758 | 7674 ft | 262 kts | 229° |
| 2026-05-04 04:06 | 36.42249 | -114.18567 | 7023 ft | 259 kts | 229° |
| 2026-05-04 04:06 | 36.41133 | -114.20357 | 6384 ft | 257 kts | 229° |
| 2026-05-04 04:07 | 36.40004 | -114.22160 | 5698 ft | 256 kts | 229° |
| 2026-05-04 04:07 | 36.38880 | -114.23952 | 5106 ft | 258 kts | 230° |
| 2026-05-04 04:07 | 36.37752 | -114.25728 | 5044 ft | 256 kts | 229° |
| 2026-05-04 04:07 | 36.36611 | -114.27510 | 5332 ft | 267 kts | 229° |
| 2026-05-04 04:08 | 36.35439 | -114.29346 | 6245 ft | 262 kts | 229° |
| 2026-05-04 04:08 | 36.34300 | -114.31139 | 7081 ft | 260 kts | 229° |
| 2026-05-04 04:08 | 36.33138 | -114.32958 | 7815 ft | 262 kts | 229° |
| 2026-05-04 04:08 | 36.31984 | -114.34768 | 8510 ft | 266 kts | 228° |
| 2026-05-04 04:09 | 36.30791 | -114.36636 | 9162 ft | 270 kts | 228° |
| 2026-05-04 04:09 | 36.29588 | -114.38523 | 9543 ft | 272 kts | 227° |
| 2026-05-04 04:09 | 36.28374 | -114.40416 | 9572 ft | 272 kts | 228° |
| 2026-05-04 04:09 | 36.27152 | -114.42324 | 9550 ft | 272 kts | 228° |
| 2026-05-04 04:10 | 36.25948 | -114.44205 | 9546 ft | 271 kts | 228° |
| 2026-05-04 04:10 | 36.24733 | -114.46097 | 9541 ft | 270 kts | 227° |
| 2026-05-04 04:10 | 36.23530 | -114.47937 | 9533 ft | 271 kts | 227° |
| 2026-05-04 04:10 | 36.22317 | -114.49793 | 9525 ft | 273 kts | 227° |
| 2026-05-04 04:11 | 36.21086 | -114.51683 | 9525 ft | 270 kts | 227° |
| 2026-05-04 04:11 | 36.19882 | -114.53524 | 9497 ft | 272 kts | 227° |
| 2026-05-04 04:11 | 36.18653 | -114.55406 | 9368 ft | 271 kts | 227° |
| 2026-05-04 04:11 | 36.17416 | -114.57302 | 9207 ft | 270 kts | 227° |
| 2026-05-04 04:12 | 36.16193 | -114.59175 | 9025 ft | 270 kts | 227° |
| 2026-05-04 04:12 | 36.14966 | -114.61046 | 8843 ft | 269 kts | 228° |
| 2026-05-04 04:12 | 36.13750 | -114.62904 | 8857 ft | 268 kts | 227° |
| 2026-05-04 04:12 | 36.12524 | -114.64782 | 8707 ft | 270 kts | 227° |
| 2026-05-04 04:13 | 36.11298 | -114.66650 | 8350 ft | 269 kts | 227° |
| 2026-05-04 04:13 | 36.10082 | -114.68501 | 8057 ft | 264 kts | 227° |
| 2026-05-04 04:13 | 36.08921 | -114.70273 | 8005 ft | 248 kts | 227° |
| 2026-05-04 04:13 | 36.07871 | -114.71932 | 7987 ft | 235 kts | 233° |
| 2026-05-04 04:14 | 36.07299 | -114.73885 | 7960 ft | 242 kts | 258° |
| 2026-05-04 04:14 | 36.07261 | -114.75976 | 7649 ft | 241 kts | 264° |
| 2026-05-04 04:14 | 36.07286 | -114.78092 | 7313 ft | 242 kts | 266° |
| 2026-05-04 04:14 | 36.07356 | -114.80152 | 6953 ft | 235 kts | 266° |
| 2026-05-04 04:15 | 36.07416 | -114.82149 | 6624 ft | 225 kts | 266° |
| 2026-05-04 04:15 | 36.07446 | -114.84036 | 6349 ft | 214 kts | 264° |
| 2026-05-04 04:15 | 36.07454 | -114.85789 | 6086 ft | 204 kts | 264° |
| 2026-05-04 04:15 | 36.07451 | -114.87492 | 5892 ft | 191 kts | 264° |
| 2026-05-04 04:16 | 36.07443 | -114.89123 | 5695 ft | 189 kts | 264° |
| 2026-05-04 04:16 | 36.07432 | -114.90715 | 5450 ft | 187 kts | 264° |
| 2026-05-04 04:16 | 36.07422 | -114.92310 | 5217 ft | 186 kts | 264° |
| 2026-05-04 04:16 | 36.07413 | -114.93872 | 4969 ft | 185 kts | 264° |
| 2026-05-04 04:17 | 36.07405 | -114.95424 | 4731 ft | 186 kts | 266° |
| 2026-05-04 04:17 | 36.07399 | -114.96967 | 4503 ft | 185 kts | 265° |
| 2026-05-04 04:17 | 36.07394 | -114.98525 | 4273 ft | 185 kts | 265° |
| 2026-05-04 04:17 | 36.07390 | -115.00063 | 4095 ft | 183 kts | 265° |
| 2026-05-04 04:18 | 36.07386 | -115.01558 | 3871 ft | 184 kts | 266° |
| 2026-05-04 04:18 | 36.07383 | -115.03058 | 3637 ft | 173 kts | 266° |
| 2026-05-04 04:18 | 36.07382 | -115.04398 | 3403 ft | 157 kts | 266° |
| 2026-05-04 04:18 | 36.07380 | -115.05691 | 3213 ft | 146 kts | 265° |
| 2026-05-04 04:19 | 36.07376 | -115.06914 | 3044 ft | 144 kts | 266° |
| 2026-05-04 04:19 | 36.07376 | -115.08141 | 2880 ft | 143 kts | 265° |
| 2026-05-04 04:19 | 36.07371 | -115.09364 | 2674 ft | 141 kts | 266° |
| 2026-05-04 04:19 | 36.07377 | -115.10575 | 2522 ft | 144 kts | 265° |
| 2026-05-04 04:20 | 36.07368 | -115.11799 | 2350 ft | 146 kts | 266° |
| 2026-05-04 04:20 | 36.07367 | -115.13051 | 2219 ft | 145 kts | 266° |
| 2026-05-04 04:20 | 36.07357 | -115.14183 | 2196 ft | 117 kts | 269° |
| 2026-05-04 04:20 | 36.07406 | -115.14902 | 2196 ft | 49 kts | 291° |
| 2026-05-04 04:21 | 36.07481 | -115.15075 | 2196 ft | 11 kts | 306° |
| 2026-05-04 04:21 | 36.07496 | -115.15098 | 2196 ft | 2 kts | 312° |
| 2026-05-04 04:21 | 36.07501 | -115.15118 | 2196 ft | 3 kts | 276° |
| 2026-05-04 04:21 | 36.07502 | -115.15151 | 2196 ft | 5 kts | 271° |
| 2026-05-04 04:22 | 36.07502 | -115.15214 | 2196 ft | 9 kts | 270° |
| 2026-05-04 04:22 | 36.07503 | -115.15311 | 2196 ft | 12 kts | 270° |
| 2026-05-04 04:22 | 36.07502 | -115.15435 | 2196 ft | 15 kts | 270° |
| 2026-05-04 04:22 | 36.07509 | -115.15559 | 2196 ft | 7 kts | 287° |
| 2026-05-04 04:23 | 36.07511 | -115.15565 | 2196 ft | 0 kts | 289° |
| 2026-05-04 04:23 | 36.07513 | -115.15572 | 2196 ft | 4 kts | 291° |
| 2026-05-04 04:23 | 36.07564 | -115.15655 | 2196 ft | 23 kts | 312° |
| 2026-05-04 04:24 | 36.07702 | -115.15807 | 2196 ft | 23 kts | 332° |
| 2026-05-04 04:24 | 36.07804 | -115.15746 | 2196 ft | 20 kts | 87° |
| 2026-05-04 04:24 | 36.07803 | -115.15580 | 2196 ft | 20 kts | 89° |
| 2026-05-04 04:24 | 36.07804 | -115.15416 | 2196 ft | 20 kts | 90° |
| 2026-05-04 04:25 | 36.07805 | -115.15241 | 2196 ft | 21 kts | 90° |
| 2026-05-04 04:25 | 36.07802 | -115.15060 | 2196 ft | 21 kts | 94° |
| 2026-05-04 04:25 | 36.07789 | -115.14880 | 2196 ft | 21 kts | 96° |
| 2026-05-04 04:25 | 36.07774 | -115.14702 | 2196 ft | 21 kts | 96° |
| 2026-05-04 04:26 | 36.07766 | -115.14520 | 2196 ft | 21 kts | 95° |
| 2026-05-04 04:26 | 36.07755 | -115.14346 | 2196 ft | 21 kts | 94° |
| 2026-05-04 04:26 | 36.07755 | -115.14157 | 2196 ft | 22 kts | 90° |
| 2026-05-04 04:26 | 36.07756 | -115.13967 | 2196 ft | 22 kts | 90° |
| 2026-05-04 04:27 | 36.07755 | -115.13784 | 2196 ft | 22 kts | 91° |
| 2026-05-04 04:27 | 36.07754 | -115.13591 | 2196 ft | 22 kts | 89° |
| 2026-05-04 04:27 | 36.07757 | -115.13403 | 2196 ft | 18 kts | 80° |
| 2026-05-04 04:27 | 36.07787 | -115.13298 | 2196 ft | 14 kts | 17° |
| 2026-05-04 04:28 | 36.07899 | -115.13293 | 2195 ft | 19 kts | 1° |
| 2026-05-04 04:28 | 36.08021 | -115.13300 | 2195 ft | 23 kts | 338° |